createdAt,value
2022-09-11T00:01:23.171Z,60.20
2022-09-11T00:03:49.957Z,60.10
2022-09-11T00:06:28.893Z,60.10
2022-09-11T00:09:00.353Z,60.00
2022-09-11T00:11:40.267Z,60.10
2022-09-11T00:14:07.872Z,60.10
2022-09-11T00:16:39.131Z,60.00
2022-09-11T00:19:10.604Z,60.00
2022-09-11T00:21:37.375Z,60.00
2022-09-11T00:24:04.716Z,59.90
2022-09-11T00:26:31.783Z,59.90
2022-09-11T00:28:58.560Z,59.90
2022-09-11T00:31:28.485Z,59.90
2022-09-11T00:33:56.346Z,59.90
2022-09-11T00:36:26.317Z,60.00
2022-09-11T00:38:53.548Z,60.00
2022-09-11T00:41:26.696Z,60.00
2022-09-11T00:43:55.292Z,60.00
2022-09-11T00:46:26.129Z,60.00
2022-09-11T00:48:55.850Z,60.10
2022-09-11T00:51:26.323Z,60.10
2022-09-11T00:53:56.350Z,60.10
2022-09-11T00:56:27.514Z,60.20
2022-09-11T00:58:55.889Z,60.20
2022-09-11T01:01:22.625Z,60.20
2022-09-11T01:03:49.651Z,60.30
2022-09-11T01:06:16.835Z,60.30
2022-09-11T01:08:43.563Z,60.30
2022-09-11T01:11:35.492Z,60.30
2022-09-11T01:14:11.093Z,60.30
2022-09-11T01:16:56.413Z,60.30
2022-09-11T01:19:52.290Z,60.30
2022-09-11T01:22:31.433Z,60.30
2022-09-11T01:25:27.863Z,60.30
2022-09-11T01:28:00.831Z,60.20
2022-09-11T01:30:40.224Z,60.20
2022-09-11T01:33:28.255Z,60.20
2022-09-11T01:35:57.116Z,60.10
2022-09-11T01:38:39.088Z,60.10
2022-09-11T01:41:15.442Z,60.10
2022-09-11T01:43:58.500Z,60.10
2022-09-11T01:46:27.146Z,60.10
2022-09-11T01:49:01.466Z,60.00
2022-09-11T01:51:32.310Z,60.00
2022-09-11T01:54:02.402Z,60.00
2022-09-11T01:56:35.401Z,59.90
2022-09-11T01:59:06.739Z,59.90
2022-09-11T02:01:36.813Z,59.90
2022-09-11T02:04:15.760Z,59.90
2022-09-11T02:06:57.712Z,59.80
2022-09-11T02:09:27.407Z,59.90
2022-09-11T02:11:57.946Z,59.90
2022-09-11T02:14:30.931Z,59.90
2022-09-11T02:17:08.803Z,59.90
2022-09-11T02:19:35.680Z,60.00
2022-09-11T02:22:02.461Z,60.00
2022-09-11T02:24:29.417Z,60.00
2022-09-11T02:27:01.623Z,60.00
2022-09-11T02:29:28.735Z,60.00
2022-09-11T02:31:56.151Z,60.20
2022-09-11T02:34:28.251Z,60.00
2022-09-11T02:37:13.510Z,60.00
2022-09-11T02:40:01.604Z,60.00
2022-09-11T02:42:54.303Z,60.00
2022-09-11T02:45:28.605Z,60.00
2022-09-11T02:48:15.928Z,59.90
2022-09-11T02:50:52.521Z,59.90
2022-09-11T02:53:56.831Z,59.90
2022-09-11T02:56:29.381Z,59.90
2022-09-11T02:59:01.731Z,59.80
2022-09-11T03:01:28.664Z,59.90
2022-09-11T03:03:55.496Z,59.80
2022-09-11T03:06:24.734Z,59.80
2022-09-11T03:08:51.692Z,59.80
2022-09-11T03:11:19.976Z,59.80
2022-09-11T03:13:46.815Z,59.80
2022-09-11T03:16:13.798Z,59.80
2022-09-11T03:18:40.847Z,59.80
2022-09-11T03:21:07.560Z,59.70
2022-09-11T03:23:34.329Z,59.70
2022-09-11T03:26:01.072Z,59.70
2022-09-11T03:28:27.783Z,59.70
2022-09-11T03:30:54.578Z,59.60
2022-09-11T03:33:21.317Z,59.60
2022-09-11T03:35:48.054Z,59.60
2022-09-11T03:38:15.696Z,59.60
2022-09-11T03:40:43.774Z,59.60
2022-09-11T03:43:12.251Z,59.50
2022-09-11T03:45:39.677Z,59.50
2022-09-11T03:48:06.532Z,59.50
2022-09-11T03:50:33.953Z,59.50
2022-09-11T03:53:00.851Z,59.40
2022-09-11T03:55:28.650Z,59.50
2022-09-11T03:57:55.446Z,59.40
2022-09-11T04:00:22.322Z,59.40
2022-09-11T04:02:49.637Z,59.40
2022-09-11T04:05:16.524Z,59.40
2022-09-11T04:07:43.388Z,59.40
2022-09-11T04:10:10.826Z,59.30
2022-09-11T04:12:38.567Z,59.40
2022-09-11T04:15:05.767Z,59.30
2022-09-11T04:17:32.491Z,59.40
2022-09-11T04:19:59.190Z,59.30
2022-09-11T04:22:26.484Z,59.30
2022-09-11T04:24:53.225Z,59.30
2022-09-11T04:27:21.298Z,59.30
2022-09-11T04:29:47.994Z,59.30
2022-09-11T04:32:14.729Z,59.30
2022-09-11T04:34:41.555Z,59.30
2022-09-11T04:37:08.244Z,59.30
2022-09-11T04:39:35.837Z,59.20
2022-09-11T04:42:04.196Z,59.20
2022-09-11T04:44:32.475Z,59.20
2022-09-11T04:46:59.166Z,59.30
2022-09-11T04:49:25.994Z,59.30
2022-09-11T04:51:52.706Z,59.40
2022-09-11T04:54:23.710Z,59.50
2022-09-11T04:56:50.917Z,59.50
2022-09-11T04:59:20.338Z,59.50
2022-09-11T05:01:47.164Z,59.60
2022-09-11T05:04:15.647Z,59.60
2022-09-11T05:06:45.253Z,59.60
2022-09-11T05:09:11.958Z,59.60
2022-09-11T05:11:39.404Z,59.70
2022-09-11T05:14:06.785Z,59.70
2022-09-11T05:16:37.126Z,59.60
2022-09-11T05:19:04.872Z,59.70
2022-09-11T05:21:31.938Z,59.80
2022-09-11T05:24:01.118Z,59.80
2022-09-11T05:26:30.734Z,59.70
2022-09-11T05:29:07.195Z,59.80
2022-09-11T05:31:34.016Z,59.80
2022-09-11T05:34:00.979Z,59.90
2022-09-11T05:36:30.928Z,59.90
2022-09-11T05:38:58.727Z,60.00
2022-09-11T05:41:26.153Z,60.10
2022-09-11T05:43:53.243Z,60.10
2022-09-11T05:46:20.698Z,60.20
2022-09-11T05:48:48.055Z,60.20
2022-09-11T05:51:20.271Z,60.20
2022-09-11T05:53:54.213Z,60.30
2022-09-11T05:56:22.933Z,60.30
2022-09-11T05:58:51.725Z,60.30
2022-09-11T06:01:21.464Z,60.40
2022-09-11T06:03:49.494Z,60.30
2022-09-11T06:06:17.822Z,60.30
2022-09-11T06:08:45.167Z,60.30
2022-09-11T06:11:14.046Z,60.30
2022-09-11T06:13:43.057Z,60.30
2022-09-11T06:16:18.240Z,60.30
2022-09-11T06:18:49.285Z,60.30
2022-09-11T06:21:20.524Z,60.30
2022-09-11T06:23:49.120Z,60.30
2022-09-11T06:26:18.560Z,60.40
2022-09-11T06:28:45.358Z,60.40
2022-09-11T06:31:16.245Z,60.40
2022-09-11T06:33:44.077Z,60.40
2022-09-11T06:36:23.600Z,60.30
2022-09-11T06:38:54.944Z,60.30
2022-09-11T06:41:22.162Z,60.40
2022-09-11T06:43:49.343Z,60.30
2022-09-11T06:46:19.052Z,60.30
2022-09-11T06:48:49.042Z,60.30
2022-09-11T06:51:18.076Z,60.40
2022-09-11T06:53:47.300Z,60.50
2022-09-11T06:56:17.297Z,60.50
2022-09-11T06:58:45.289Z,60.60
2022-09-11T07:01:16.197Z,60.60
2022-09-11T07:03:47.887Z,60.70
2022-09-11T07:06:23.639Z,60.80
2022-09-11T07:08:56.901Z,60.90
2022-09-11T07:11:23.853Z,60.90
2022-09-11T07:13:50.584Z,60.90
2022-09-11T07:16:17.361Z,61.00
2022-09-11T07:18:46.670Z,61.10
2022-09-11T07:21:22.312Z,61.10
2022-09-11T07:23:52.012Z,61.10
2022-09-11T07:26:19.040Z,61.20
2022-09-11T07:28:48.791Z,61.20
2022-09-11T07:31:20.920Z,61.20
2022-09-11T07:33:49.645Z,61.30
2022-09-11T07:36:19.231Z,61.40
2022-09-11T07:38:47.833Z,61.50
2022-09-11T07:41:16.686Z,61.60
2022-09-11T07:43:46.408Z,61.70
2022-09-11T07:46:14.390Z,61.70
2022-09-11T07:48:43.024Z,61.80
2022-09-11T07:51:15.637Z,61.80
2022-09-11T07:53:44.661Z,61.90
2022-09-11T07:56:36.391Z,62.00
2022-09-11T07:59:08.072Z,61.90
2022-09-11T08:01:35.457Z,61.90
2022-09-11T08:04:11.798Z,62.00
2022-09-11T08:06:38.959Z,62.00
2022-09-11T08:09:08.545Z,62.10
2022-09-11T08:11:42.901Z,62.10
2022-09-11T08:14:13.451Z,62.10
2022-09-11T08:16:40.948Z,62.20
2022-09-11T08:19:10.026Z,62.20
2022-09-11T08:21:36.787Z,62.20
2022-09-11T08:24:03.943Z,62.30
2022-09-11T08:26:31.165Z,62.20
2022-09-11T08:28:59.934Z,62.40
2022-09-11T08:31:27.591Z,62.40
2022-09-11T08:33:55.698Z,62.50
2022-09-11T08:36:23.552Z,62.50
2022-09-11T08:38:51.552Z,62.60
2022-09-11T08:41:21.229Z,62.70
2022-09-11T08:43:53.805Z,62.80
2022-09-11T08:46:25.420Z,62.90
2022-09-11T08:49:31.183Z,62.90
2022-09-11T08:52:01.825Z,62.90
2022-09-11T08:54:36.430Z,62.90
2022-09-11T08:57:35.246Z,62.80
2022-09-11T09:00:10.968Z,62.60
2022-09-11T09:03:05.418Z,62.30
2022-09-11T09:05:50.147Z,61.90
2022-09-11T09:09:06.091Z,61.50
2022-09-11T09:11:46.989Z,61.20
2022-09-11T09:14:25.258Z,60.90
2022-09-11T09:17:19.676Z,60.60
2022-09-11T09:19:57.380Z,60.30
2022-09-11T09:22:43.677Z,60.10
2022-09-11T09:25:13.941Z,59.80
2022-09-11T09:27:48.687Z,59.70
2022-09-11T09:30:24.494Z,59.70
2022-09-11T09:33:12.648Z,59.60
2022-09-11T09:35:43.095Z,59.60
2022-09-11T09:38:13.995Z,59.60
2022-09-11T09:41:08.739Z,59.60
2022-09-11T09:44:04.708Z,59.70
2022-09-11T09:46:36.928Z,59.70
2022-09-11T09:49:04.683Z,59.70
2022-09-11T09:51:31.483Z,59.70
2022-09-11T09:54:01.663Z,59.70
2022-09-11T09:56:31.626Z,59.70
2022-09-11T09:59:19.846Z,59.70
2022-09-11T10:01:50.919Z,59.70
2022-09-11T10:04:27.167Z,59.70
2022-09-11T10:07:10.722Z,59.70
2022-09-11T10:09:46.742Z,59.80
2022-09-11T10:12:20.109Z,59.60
2022-09-11T10:15:01.571Z,59.60
2022-09-11T10:17:29.701Z,59.60
2022-09-11T10:20:13.254Z,59.50
2022-09-11T10:22:40.068Z,59.40
2022-09-11T10:25:14.170Z,59.40
2022-09-11T10:28:08.968Z,59.40
2022-09-11T10:30:42.446Z,59.40
2022-09-11T10:33:21.288Z,59.40
2022-09-11T10:35:55.104Z,59.40
2022-09-11T10:38:29.758Z,59.30
2022-09-11T10:41:08.443Z,59.30
2022-09-11T10:43:50.670Z,59.40
2022-09-11T10:46:25.311Z,59.40
2022-09-11T10:48:58.435Z,59.30
2022-09-11T10:51:28.101Z,59.30
2022-09-11T10:53:59.596Z,59.30
2022-09-11T10:56:27.496Z,59.30
2022-09-11T10:59:03.408Z,59.30
2022-09-11T11:01:30.402Z,59.30
2022-09-11T11:03:58.064Z,59.40
2022-09-11T11:06:40.720Z,59.30
2022-09-11T11:09:31.125Z,59.40
2022-09-11T11:12:17.460Z,59.20
2022-09-11T11:15:11.829Z,59.20
2022-09-11T11:17:45.117Z,59.20
2022-09-11T11:20:36.294Z,59.10
2022-09-11T11:23:16.677Z,59.00
2022-09-11T11:26:04.711Z,59.10
2022-09-11T11:29:00.764Z,59.10
2022-09-11T11:31:52.714Z,59.10
2022-09-11T11:34:37.104Z,59.20
2022-09-11T11:37:17.896Z,59.20
2022-09-11T11:40:10.291Z,59.10
2022-09-11T11:42:55.423Z,59.10
2022-09-11T11:45:27.547Z,59.20
2022-09-11T11:47:55.538Z,59.20
2022-09-11T11:50:45.456Z,59.20
2022-09-11T11:53:20.643Z,59.20
2022-09-11T11:55:54.394Z,59.20
2022-09-11T11:58:53.941Z,59.10
2022-09-11T12:01:39.915Z,59.10
2022-09-11T12:04:42.614Z,59.10
2022-09-11T12:07:18.498Z,59.00
2022-09-11T12:09:49.722Z,59.00
2022-09-11T12:12:18.144Z,59.00
2022-09-11T12:14:56.811Z,58.90
2022-09-11T12:17:32.601Z,58.90
2022-09-11T12:20:11.601Z,58.90
2022-09-11T12:22:47.098Z,58.90
2022-09-11T12:25:19.813Z,58.90
2022-09-11T12:27:46.511Z,59.00
2022-09-11T12:30:16.291Z,58.90
2022-09-11T12:32:45.663Z,58.80
2022-09-11T12:35:27.510Z,58.90
2022-09-11T12:38:06.651Z,58.70
2022-09-11T12:40:54.060Z,58.70
2022-09-11T12:43:35.290Z,58.70
2022-09-11T12:46:20.399Z,58.70
2022-09-11T12:49:05.960Z,58.60
2022-09-11T12:51:42.892Z,58.60
2022-09-11T12:54:33.438Z,58.70
2022-09-11T12:57:07.304Z,58.60
2022-09-11T12:59:38.625Z,58.60
2022-09-11T13:02:36.532Z,58.60
2022-09-11T13:05:06.213Z,58.60
2022-09-11T13:07:43.627Z,58.60
2022-09-11T13:10:43.288Z,58.50
2022-09-11T13:13:46.879Z,58.50
2022-09-11T13:16:35.863Z,58.50
2022-09-11T13:19:17.750Z,58.40
2022-09-11T13:21:49.206Z,58.30
2022-09-11T13:24:24.096Z,58.10
2022-09-11T13:27:02.107Z,58.00
2022-09-11T13:29:32.241Z,57.80
2022-09-11T13:32:00.585Z,57.60
2022-09-11T13:34:29.401Z,57.60
2022-09-11T13:36:57.694Z,57.60
2022-09-11T13:39:26.826Z,57.60
2022-09-11T13:42:02.571Z,57.70
2022-09-11T13:44:41.356Z,57.80
2022-09-11T13:47:21.129Z,57.80
2022-09-11T13:49:50.119Z,57.70
2022-09-11T13:52:18.595Z,57.50
2022-09-11T13:54:51.887Z,57.30
2022-09-11T13:57:23.717Z,57.30
2022-09-11T13:59:56.711Z,57.20
2022-09-11T14:02:26.286Z,57.10
2022-09-11T14:05:02.100Z,57.00
2022-09-11T14:07:29.438Z,57.00
2022-09-11T14:10:13.927Z,56.90
2022-09-11T14:12:55.293Z,56.90
2022-09-11T14:15:33.632Z,56.90
2022-09-11T14:18:06.907Z,56.80
2022-09-11T14:20:34.463Z,56.80
2022-09-11T14:23:05.560Z,56.80
2022-09-11T14:25:33.988Z,56.90
2022-09-11T14:28:00.767Z,57.10
2022-09-11T14:30:36.177Z,57.20
2022-09-11T14:33:24.628Z,57.30
2022-09-11T14:35:55.182Z,57.40
2022-09-11T14:38:23.918Z,57.50
2022-09-11T14:40:57.800Z,58.20
2022-09-11T14:43:33.451Z,57.60
2022-09-11T14:46:01.197Z,57.60
2022-09-11T14:48:30.410Z,57.60
2022-09-11T14:50:57.721Z,57.60
2022-09-11T14:53:28.935Z,57.70
2022-09-11T14:55:59.862Z,57.70
2022-09-11T14:58:27.580Z,57.70
2022-09-11T15:00:55.131Z,57.70
2022-09-11T15:03:24.400Z,57.70
2022-09-11T15:05:55.715Z,57.80
2022-09-11T15:08:23.600Z,57.80
2022-09-11T15:10:52.713Z,57.70
2022-09-11T15:13:20.872Z,57.70
2022-09-11T15:15:47.794Z,57.60
2022-09-11T15:18:14.708Z,57.60
2022-09-11T15:20:41.648Z,57.50
2022-09-11T15:23:08.617Z,57.40
2022-09-11T15:25:35.350Z,57.30
2022-09-11T15:28:02.288Z,57.30
2022-09-11T15:30:29.526Z,57.30
2022-09-11T15:32:56.242Z,57.30
2022-09-11T15:35:23.144Z,57.30
2022-09-11T15:37:50.673Z,57.30
2022-09-11T15:40:17.814Z,57.40
2022-09-11T15:42:44.904Z,57.40
2022-09-11T15:45:13.239Z,57.50
2022-09-11T15:47:40.553Z,57.60
2022-09-11T15:50:08.870Z,57.60
2022-09-11T15:52:36.771Z,57.70
2022-09-11T15:55:03.927Z,57.70
2022-09-11T15:57:31.275Z,57.80
2022-09-11T15:59:58.219Z,57.70
2022-09-11T16:02:25.223Z,57.80
2022-09-11T16:04:53.922Z,57.90
2022-09-11T16:07:21.510Z,57.90
2022-09-11T16:09:48.388Z,58.00
2022-09-11T16:12:15.664Z,58.00
2022-09-11T16:14:43.584Z,58.10
2022-09-11T16:17:10.385Z,58.10
2022-09-11T16:19:38.562Z,58.20
2022-09-11T16:22:07.244Z,58.20
2022-09-11T16:24:38.382Z,58.20
2022-09-11T16:27:16.554Z,58.30
2022-09-11T16:32:37.407Z,59.00
2022-09-11T16:35:04.555Z,58.30
2022-09-11T16:41:52.606Z,58.40
2022-09-11T16:44:19.757Z,58.40
2022-09-11T16:46:46.953Z,58.50
2022-09-11T16:49:16.528Z,58.50
2022-09-11T16:51:45.106Z,59.20
2022-09-11T16:54:12.124Z,58.50
2022-09-11T16:56:43.915Z,58.50
2022-09-11T16:59:12.571Z,58.50
2022-09-11T17:01:39.959Z,58.50
2022-09-11T17:04:06.774Z,58.70
2022-09-11T17:06:33.592Z,58.70
2022-09-11T17:09:02.204Z,58.80
2022-09-11T17:11:31.424Z,58.80
2022-09-11T17:14:01.585Z,58.90
2022-09-11T17:16:32.884Z,58.90
2022-09-11T17:19:01.546Z,58.90
2022-09-11T17:21:29.992Z,58.90
2022-09-11T17:23:58.025Z,59.00
2022-09-11T17:26:24.925Z,59.00
2022-09-11T17:28:52.690Z,59.20
2022-09-11T17:31:20.508Z,59.20
2022-09-11T17:33:48.655Z,59.30
2022-09-11T17:36:18.061Z,59.20
2022-09-11T17:38:46.377Z,59.20
2022-09-11T17:41:13.241Z,59.40
2022-09-11T17:43:40.593Z,59.30
2022-09-11T17:46:10.364Z,59.30
2022-09-11T17:48:39.194Z,59.30
2022-09-11T17:51:11.486Z,59.30
2022-09-11T17:53:46.591Z,59.30
2022-09-11T17:56:21.576Z,59.30
2022-09-11T17:58:51.201Z,59.40
2022-09-11T18:01:18.864Z,59.40
2022-09-11T18:03:53.776Z,59.50
2022-09-11T18:06:36.250Z,59.50
2022-09-11T18:09:13.724Z,59.60
2022-09-11T18:11:43.017Z,59.60
2022-09-11T18:14:11.411Z,59.70
2022-09-11T18:16:38.457Z,59.70
2022-09-11T18:19:06.213Z,59.70
2022-09-11T18:21:34.135Z,59.80
2022-09-11T18:24:04.087Z,59.80
2022-09-11T18:26:33.122Z,59.80
2022-09-11T18:29:02.663Z,59.80
2022-09-11T18:31:31.374Z,59.80
2022-09-11T18:34:00.508Z,59.90
2022-09-11T18:36:29.460Z,59.90
2022-09-11T18:38:59.994Z,60.00
2022-09-11T18:41:29.903Z,60.00
2022-09-11T18:44:00.126Z,60.00
2022-09-11T18:46:27.689Z,60.00
2022-09-11T18:48:55.870Z,60.00
2022-09-11T18:51:23.174Z,60.00
2022-09-11T18:53:53.764Z,60.00
2022-09-11T18:56:25.722Z,60.00
2022-09-11T18:58:52.601Z,60.00
2022-09-11T19:01:22.616Z,60.00
2022-09-11T19:03:51.760Z,60.00
2022-09-11T19:06:21.072Z,60.00
2022-09-11T19:08:49.285Z,60.10
2022-09-11T19:11:18.930Z,60.10
2022-09-11T19:13:46.451Z,60.10
2022-09-11T19:16:14.638Z,60.10
2022-09-11T19:18:42.033Z,60.10
2022-09-11T19:21:23.144Z,60.10
2022-09-11T19:24:00.798Z,60.10
2022-09-11T19:26:38.139Z,60.10
2022-09-11T19:29:06.256Z,60.10
2022-09-11T19:31:34.089Z,60.10
2022-09-11T19:34:02.064Z,60.00
2022-09-11T19:36:31.485Z,60.10
2022-09-11T19:39:01.701Z,60.20
2022-09-11T19:41:35.087Z,60.20
2022-09-11T19:44:04.175Z,60.20
2022-09-11T19:46:32.919Z,60.30
2022-09-11T19:49:05.669Z,60.20
2022-09-11T19:51:35.101Z,60.40
2022-09-11T19:54:05.600Z,60.30
2022-09-11T19:56:35.159Z,60.40
2022-09-11T19:59:02.333Z,60.40
2022-09-11T20:01:30.404Z,60.40
2022-09-11T20:04:00.537Z,60.40
2022-09-11T20:06:30.197Z,60.40
2022-09-11T20:09:19.781Z,60.40
2022-09-11T20:11:45.279Z,60.50
2022-09-11T20:14:12.439Z,60.50
2022-09-11T20:16:39.306Z,60.60
2022-09-11T20:19:06.564Z,60.60
2022-09-11T20:21:36.039Z,60.60
2022-09-11T20:24:06.311Z,60.50
2022-09-11T20:26:34.010Z,60.50
2022-09-11T20:29:06.922Z,60.50
2022-09-11T20:31:40.623Z,60.60
2022-09-11T20:34:13.880Z,60.60
2022-09-11T20:36:42.601Z,60.70
2022-09-11T20:39:13.394Z,60.70
2022-09-11T20:41:40.266Z,60.80
2022-09-11T20:44:07.088Z,60.90
2022-09-11T20:46:33.998Z,60.90
2022-09-11T20:49:01.067Z,60.90
2022-09-11T20:51:28.121Z,61.00
2022-09-11T20:53:55.435Z,61.00
2022-09-11T20:56:23.697Z,61.00
2022-09-11T20:58:51.465Z,61.00
2022-09-11T21:01:21.594Z,61.00
2022-09-11T21:03:56.548Z,61.00
2022-09-11T21:06:26.596Z,60.90
2022-09-11T21:08:59.307Z,60.90
2022-09-11T21:11:28.110Z,60.90
2022-09-11T21:13:54.964Z,60.80
2022-09-11T21:16:22.042Z,60.80
2022-09-11T21:18:51.550Z,60.90
2022-09-11T21:21:19.199Z,60.80
2022-09-11T21:23:46.210Z,60.90
2022-09-11T21:26:15.558Z,60.90
2022-09-11T21:28:42.825Z,60.90
2022-09-11T21:31:09.757Z,61.00
2022-09-11T21:33:37.788Z,60.90
2022-09-11T21:36:05.126Z,61.60
2022-09-11T21:38:31.879Z,61.00
2022-09-11T21:41:00.843Z,61.00
2022-09-11T21:43:28.652Z,61.10
2022-09-11T21:45:55.607Z,61.10
2022-09-11T21:48:22.952Z,61.10
2022-09-11T21:50:50.033Z,61.10
2022-09-11T21:53:17.370Z,61.20
2022-09-11T21:55:45.773Z,61.20
2022-09-11T21:58:19.066Z,61.20
2022-09-11T22:00:47.994Z,61.20
2022-09-11T22:03:17.098Z,61.20
2022-09-11T22:05:45.689Z,61.10
2022-09-11T22:08:15.103Z,61.10
2022-09-11T22:10:47.735Z,61.10
2022-09-11T22:13:15.163Z,61.10
2022-09-11T22:15:47.246Z,61.10
2022-09-11T22:18:14.933Z,61.00
2022-09-11T22:20:42.549Z,61.00
2022-09-11T22:23:14.752Z,61.00
2022-09-11T22:25:41.597Z,60.90
2022-09-11T22:28:08.577Z,60.90
2022-09-11T22:30:35.430Z,60.90
2022-09-11T22:33:02.316Z,60.90
2022-09-11T22:35:29.269Z,60.90
2022-09-11T22:37:55.979Z,60.90
2022-09-11T22:40:22.725Z,60.90
2022-09-11T22:42:49.908Z,60.90
2022-09-11T22:45:17.050Z,60.90
2022-09-11T22:47:43.803Z,60.90
2022-09-11T22:50:10.827Z,60.80
2022-09-11T22:52:37.686Z,60.80
2022-09-11T22:55:06.241Z,60.80
2022-09-11T22:57:35.460Z,60.80
2022-09-11T23:00:05.183Z,60.90
2022-09-11T23:02:32.390Z,60.80
2022-09-11T23:05:17.809Z,60.80
2022-09-11T23:07:48.333Z,60.80
2022-09-11T23:10:15.376Z,60.70
2022-09-11T23:12:43.627Z,60.70
2022-09-11T23:15:10.802Z,60.70
2022-09-11T23:17:37.567Z,60.60
2022-09-11T23:20:04.900Z,60.60
2022-09-11T23:22:31.670Z,60.60
2022-09-11T23:24:58.711Z,60.50
2022-09-11T23:27:25.445Z,60.50
2022-09-11T23:29:52.265Z,60.50
2022-09-11T23:32:18.970Z,60.40
2022-09-11T23:34:45.703Z,60.40
2022-09-11T23:37:12.421Z,60.40
2022-09-11T23:39:39.285Z,60.40
2022-09-11T23:42:06.152Z,60.40
2022-09-11T23:44:32.978Z,60.40
2022-09-11T23:47:01.369Z,60.30
2022-09-11T23:49:32.100Z,60.30
2022-09-11T23:52:01.100Z,60.30
2022-09-11T23:54:27.838Z,60.30
2022-09-11T23:56:54.567Z,60.40
2022-09-11T23:59:21.438Z,60.30
